Latest Weather Observations for Ben Nevis

IDV60801

Issued at 4:33 pm EST Friday 21 July 2017 (issued every 30 minutes, with the page automatically refreshed every 10 minutes)

About weather observations | Map of weather stations | Latest weather observations for VIC | Other Formats
Station Details ID: 079101 Name: BEN NEVIS Lat: -37.23 Lon: 143.20 Height: 875.0 m
Data from the previous 72 hours. | See also: Recent months at Ben Nevis
Date/Time
EST
Temp
°C
App
Temp
°C
Dew
Point
°C
Rel
Hum
%
Delta-T
°C
Wind Press
QNH
hPa
Press
MSL
hPa
Rain since
9am
mm
Dir  Spd
km/h
Gust
km/h
Spd
kts
Gust
kts
21/04:30pm 4.7 0.6 2.2 84 1.1 N 13 22 7 12 - - 0.0
21/04:00pm 5.2 1.0 1.9 79 1.4 N 13 24 7 13 - - 0.0
21/03:30pm 6.2 2.6 2.7 78 1.5 N 11 19 6 10 - - 0.0
21/03:00pm 7.1 2.8 3.2 76 1.7 N 15 24 8 13 - - 0.0
21/02:30pm 7.7 4.5 3.0 72 2.1 N 9 20 5 11 - - 0.0
21/02:00pm 7.4 3.4 3.1 74 1.9 N 13 22 7 12 - - 0.0
21/01:30pm 8.5 4.9 5.1 79 1.6 N 13 22 7 12 - - 0.0
21/01:00pm 8.3 3.8 2.3 66 2.6 N 15 26 8 14 - - 0.0
21/12:30pm 7.7 4.2 3.6 75 1.9 NNW 11 20 6 11 - - 0.0
21/12:00pm 7.3 2.9 2.8 73 2.0 N 15 22 8 12 - - 0.0
21/11:30am 7.4 3.4 3.1 74 1.9 N 13 20 7 11 - - 0.0
21/11:00am 7.9 4.3 3.2 72 2.1 N 11 20 6 11 - - 0.0
21/10:30am 6.5 2.1 0.6 66 2.5 N 13 20 7 11 - - 0.0
21/10:00am 4.6 0.3 0.7 76 1.6 NNE 13 19 7 10 - - 0.0
21/09:30am 4.5 0.1 0.5 75 1.6 N 13 19 7 10 - - 0.0
21/09:00am 3.2 -1.3 -0.1 79 1.3 NNE 13 19 7 10 - - 0.4
21/08:30am 3.8 -0.3 -0.4 74 1.7 NNE 11 17 6 9 - - 0.4
21/08:00am 2.9 -1.6 0.0 81 1.1 NNE 13 19 7 10 - - 0.4
21/07:30am 2.7 -2.2 -0.2 81 1.1 NNE 15 22 8 12 - - 0.4
21/07:00am 2.7 -1.8 -0.4 80 1.2 NE 13 20 7 11 - - 0.4
21/06:30am 2.5 -3.1 0.2 85 0.9 ENE 19 28 10 15 - - 0.4
21/06:00am 2.5 -3.6 0.2 85 0.9 ENE 22 30 12 16 - - 0.4
21/05:30am 1.9 -3.9 0.1 88 0.7 E 20 26 11 14 - - 0.4
21/05:00am 2.0 -4.2 -0.1 86 0.8 E 22 28 12 15 - - 0.4
21/04:30am 2.2 -4.4 -0.1 85 0.9 E 24 30 13 16 - - 0.4
21/04:00am 1.9 -3.8 0.7 92 0.5 E 20 28 11 15 - - 0.4
21/03:30am 1.2 -3.1 1.1 99 0.0 ENE 13 17 7 9 - - 0.4
21/03:00am 1.3 -2.6 0.9 97 0.2 E 11 17 6 9 - - 0.4
21/02:30am 1.5 -3.2 0.6 94 0.4 ESE 15 26 8 14 - - 0.4
21/02:00am 1.4 -3.0 0.5 94 0.4 E 13 22 7 12 - - 0.4
21/01:30am 1.9 -4.5 0.7 92 0.5 ESE 24 35 13 19 - - 0.4
21/01:00am 1.8 -3.9 0.3 90 0.6 ESE 20 30 11 16 - - 0.2
21/12:30am 1.6 -3.2 0.1 90 0.6 SE 15 24 8 13 - - 0.2
21/12:00am 1.5 -3.7 -0.1 89 0.6 SE 17 26 9 14 - - 0.2
 
Date/Time
EST
Temp
°C
App
Temp
°C
Dew
Point
°C
Rel
Hum
%
Delta-T
°C
Wind Press
QNH
hPa
Press
MSL
hPa
Rain since
9am
mm
Dir  Spd
km/h
Gust
km/h
Spd
kts
Gust
kts
20/11:30pm 1.6 -2.9 -0.6 85 0.8 SSE 13 20 7 11 - - 0.2
20/11:00pm 1.7 -2.8 -0.4 86 0.8 SSE 13 20 7 11 - - 0.2
20/10:30pm 1.5 -3.4 -0.3 88 0.7 SSE 15 24 8 13 - - 0.2
20/10:00pm 1.7 -3.6 -0.5 85 0.8 SSE 17 30 9 16 - - 0.2
20/09:30pm 1.9 -3.8 -1.0 81 1.1 SSE 19 28 10 15 - - 0.2
20/09:00pm 1.5 -3.6 0.6 94 0.4 S 17 26 9 14 - - 0.2
20/08:30pm 1.3 -3.8 0.7 96 0.2 S 17 28 9 15 - - 0.2
20/08:00pm 1.3 -4.2 0.6 95 0.3 S 19 32 10 17 - - 0.2
20/07:30pm 1.4 -3.7 0.7 95 0.3 S 17 30 9 16 - - 0.2
20/07:00pm 1.6 -4.5 0.7 94 0.4 S 22 32 12 17 - - 0.2
20/06:30pm 1.7 -4.4 0.7 93 0.4 S 22 32 12 17 - - 0.2
20/06:00pm 1.7 -4.0 0.4 91 0.5 S 20 39 11 21 - - 0.2
20/05:30pm 2.1 -3.8 1.7 97 0.2 S 22 37 12 20 - - 0.2
20/05:00pm 2.9 -3.0 1.9 93 0.4 S 22 43 12 23 - - 0.2
20/04:30pm 3.4 -3.5 2.4 93 0.4 SSW 28 50 15 27 - - 0.2
20/04:20pm 3.3 -3.6 2.3 93 0.4 SSW 28 52 15 28 - - 0.2
20/04:00pm 4.2 -1.7 3.8 97 0.2 S 24 44 13 24 - - 0.2
20/03:30pm 3.9 -3.5 3.8 99 0.0 SSW 32 52 17 28 - - 0.2
20/03:00pm 4.1 -3.5 4.0 99 0.0 SSW 33 54 18 29 - - 0.2
20/02:31pm 3.4 -4.1 3.3 99 0.0 SSW 32 54 17 29 - - 0.2
20/02:30pm 3.9 -3.5 3.8 99 0.0 SSW 32 46 17 25 - - 0.2
20/02:10pm 4.3 -2.3 4.2 99 0.0 SSW 28 46 15 25 - - 0.2
20/02:00pm 4.2 -2.8 4.1 99 0.0 SSW 30 46 16 25 - - 0.2
20/01:30pm 4.0 -3.4 3.9 99 0.0 SSW 32 50 17 27 - - 0.2
20/01:05pm 4.2 -3.2 4.1 99 0.0 SW 32 52 17 28 - - 0.2
20/01:00pm 4.4 -2.9 4.3 99 0.0 SW 32 48 17 26 - - 0.2
20/12:30pm 3.2 -3.6 3.1 99 0.0 SW 28 54 15 29 - - 0.2
20/12:00pm 3.4 -4.1 3.3 99 0.0 SW 32 50 17 27 - - 0.2
20/11:40am 2.9 -4.3 2.8 99 0.0 SW 30 50 16 27 - - 0.2
20/11:30am 3.1 -3.7 3.0 99 0.0 SW 28 41 15 22 - - 0.2
20/11:00am 2.7 -5.9 2.6 99 0.0 SW 37 56 20 30 - - 0.2
20/10:42am 3.8 -2.9 3.7 99 0.0 SW 28 46 15 25 - - 0.2
20/10:30am 3.2 -4.4 3.1 99 0.0 SW 32 46 17 25 - - 0.2
20/10:00am 2.9 -6.0 2.8 99 0.0 SW 39 63 21 34 - - 0.2
20/09:30am 2.8 -5.8 2.7 99 0.0 SW 37 57 20 31 - - 0.2
20/09:00am 2.8 -5.8 2.7 99 0.0 SW 37 61 20 33 - - 1.2
20/08:30am 2.6 -5.6 2.5 99 0.0 SW 35 56 19 30 - - 1.0
20/08:00am 2.9 -4.9 2.8 99 0.0 SW 33 54 18 29 - - 1.0
20/07:32am 2.7 -5.9 2.6 99 0.0 SW 37 56 20 30 - - 1.0
20/07:30am 2.7 -6.3 2.6 99 0.0 SW 39 56 21 30 - - 1.0
20/07:02am 2.1 -6.2 2.0 99 0.0 SW 35 54 19 29 - - 1.0
20/07:00am 2.2 -6.5 2.1 99 0.0 SW 37 54 20 29 - - 1.0
20/06:30am 2.6 -5.6 2.5 99 0.0 SW 35 59 19 32 - - 1.0
20/06:00am 2.4 -6.3 2.3 99 0.0 WSW 37 56 20 30 - - 1.0
20/05:30am 2.3 -7.1 2.2 99 0.0 WSW 41 63 22 34 - - 1.0
20/05:00am 2.2 -6.5 2.1 99 0.0 WSW 37 59 20 32 - - 1.0
20/04:30am 2.2 -6.1 2.1 99 0.0 WSW 35 59 19 32 - - 1.0
20/04:00am 2.2 -6.1 2.1 99 0.0 WSW 35 54 19 29 - - 1.0
20/03:30am 2.3 -6.0 2.2 99 0.0 WSW 35 54 19 29 - - 1.0
20/03:15am 2.3 -6.4 2.2 99 0.0 WSW 37 56 20 30 - - 1.0
20/03:00am 2.3 -6.0 2.2 99 0.0 WSW 35 52 19 28 - - 1.0
20/02:30am 2.4 -5.9 2.3 99 0.0 WSW 35 54 19 29 - - 1.0
20/02:00am 2.4 -5.5 2.3 99 0.0 WSW 33 54 18 29 - - 1.0
20/01:50am 2.3 -5.4 2.2 99 0.0 WSW 32 50 17 27 - - 1.0
20/01:30am 2.3 -5.6 2.2 99 0.0 WSW 33 50 18 27 - - 1.0
20/01:11am 2.2 -5.5 2.1 99 0.0 WSW 32 50 17 27 - - 1.0
20/01:00am 2.2 -5.5 2.1 99 0.0 WSW 32 46 17 25 - - 1.0
20/12:30am 2.1 -5.7 2.0 99 0.0 WSW 32 44 17 24 - - 1.0
20/12:00am 2.1 -6.2 2.0 99 0.0 WSW 35 48 19 26 - - 1.0
 
Date/Time
EST
Temp
°C
App
Temp
°C
Dew
Point
°C
Rel
Hum
%
Delta-T
°C
Wind Press
QNH
hPa
Press
MSL
hPa
Rain since
9am
mm
Dir  Spd
km/h
Gust
km/h
Spd
kts
Gust
kts
19/11:30pm 2.2 -6.1 2.1 99 0.0 SW 35 54 19 29 - - 1.0
19/11:07pm 2.2 -7.2 2.1 99 0.0 SW 41 61 22 33 - - 1.0
19/11:00pm 2.1 -6.6 2.0 99 0.0 SW 37 52 20 28 - - 1.0
19/10:42pm 2.2 -6.5 2.1 99 0.0 SW 37 56 20 30 - - 1.0
19/10:30pm 2.1 -6.6 2.0 99 0.0 SW 37 50 20 27 - - 1.0
19/10:00pm 2.1 -6.6 2.0 99 0.0 SW 37 52 20 28 - - 1.0
19/09:43pm 2.1 -5.7 2.0 99 0.0 SW 32 50 17 27 - - 1.0
19/09:30pm 2.2 -5.5 2.1 99 0.0 SW 32 44 17 24 - - 1.0
19/09:00pm 2.0 -6.3 1.9 99 0.0 SW 35 48 19 26 - - 1.0
19/08:30pm 2.2 -5.5 2.1 99 0.0 SW 32 46 17 25 - - 1.0
19/08:01pm 2.5 -5.2 2.4 99 0.0 SW 32 50 17 27 - - 1.0
19/08:00pm 2.4 -5.5 2.3 99 0.0 SW 33 50 18 27 - - 1.0
19/07:31pm 2.6 -4.7 2.5 99 0.0 SW 30 48 16 26 - - 1.0
19/07:30pm 2.6 -5.1 2.5 99 0.0 SW 32 48 17 26 - - 1.0
19/07:18pm 2.8 -4.5 2.7 99 0.0 SW 30 50 16 27 - - 1.0
19/07:00pm 2.9 -4.3 2.8 99 0.0 SW 30 43 16 23 - - 1.0
19/06:32pm 2.8 -4.1 2.7 99 0.0 SSW 28 46 15 25 - - 1.0
19/06:30pm 2.8 -4.5 2.7 99 0.0 SSW 30 46 16 25 - - 1.0
19/06:01pm 2.7 -4.6 2.6 99 0.0 SSW 30 48 16 26 - - 1.0
19/06:00pm 2.7 -4.9 2.6 99 0.0 SSW 32 48 17 26 - - 1.0
19/05:48pm 2.4 -4.5 2.3 99 0.0 SSW 28 46 15 25 - - 1.0
19/05:30pm 2.2 -4.8 2.1 99 0.0 SSW 28 43 15 23 - - 1.0
19/05:00pm 2.5 -5.8 2.4 99 0.0 SSW 35 57 19 31 - - 1.0
19/04:30pm 3.0 -5.2 2.9 99 0.0 SW 35 67 19 36 - - 1.0
19/04:00pm 3.8 -4.2 3.7 99 0.0 SSW 35 61 19 33 - - 1.0
19/03:30pm 4.3 -3.6 4.2 99 0.0 SSW 35 59 19 32 - - 1.0
19/03:00pm 4.1 -4.2 4.0 99 0.0 SSW 37 65 20 35 - - 1.0
19/02:30pm 4.6 -2.9 4.5 99 0.0 SSW 33 56 18 30 - - 0.8
19/02:00pm 4.8 -2.5 4.7 99 0.0 SW 32 57 17 31 - - 0.6
19/01:30pm 4.7 -3.5 4.6 99 0.0 SSW 37 61 20 33 - - 0.6
19/01:00pm 4.6 -2.7 4.5 99 0.0 SSW 32 59 17 32 - - 0.6
19/12:30pm 4.8 -1.7 4.7 99 0.0 SSW 28 50 15 27 - - 0.4
19/12:00pm 4.7 -3.2 4.6 99 0.0 SSW 35 59 19 32 - - 0.4
19/11:30am 4.7 -2.6 4.6 99 0.0 SSW 32 50 17 27 - - 0.2
19/11:17am 4.6 -3.3 4.5 99 0.0 SSW 35 72 19 39 - - 0.2
19/11:00am 4.6 -2.9 4.5 99 0.0 SW 33 52 18 28 - - 0.2
19/10:30am 4.4 -3.9 4.3 99 0.0 SW 37 67 20 36 - - 0.2
19/10:00am 4.6 -3.6 4.5 99 0.0 SSW 37 61 20 33 - - 0.2
19/09:30am 4.7 -2.8 4.6 99 0.0 SSW 33 67 18 36 - - 0.0
19/09:00am 4.7 -3.9 4.6 99 0.0 SSW 39 72 21 39 - - 10.4
19/08:30am 4.8 -2.7 4.7 99 0.0 SSW 33 57 18 31 - - 10.4
19/08:00am 4.9 -2.3 4.8 99 0.0 SSW 32 56 17 30 - - 10.2
19/07:30am 5.1 -2.3 5.0 99 0.0 SSW 33 65 18 35 - - 10.0
19/07:00am 5.1 -3.4 5.0 99 0.0 SSW 39 80 21 43 - - 9.4
19/06:51am 5.4 -2.3 5.3 99 0.0 SSW 35 80 19 43 - - 9.2
19/06:30am 5.5 -1.6 5.4 99 0.0 SSW 32 50 17 27 - - 7.2
19/06:00am 5.5 -1.8 5.4 99 0.0 SW 33 67 18 36 - - 6.2
19/05:36am 5.3 -1.5 5.2 99 0.0 SW 30 48 16 26 - - 5.8
19/05:30am 5.3 -1.5 5.2 99 0.0 SW 30 44 16 24 - - 5.6
19/05:02am 5.2 -1.2 5.1 99 0.0 SW 28 50 15 27 - - 5.4
19/05:00am 5.1 -1.0 5.0 99 0.0 SW 26 50 14 27 - - 5.4
19/04:34am 5.0 -1.8 4.9 99 0.0 SW 30 48 16 26 - - 5.4
19/04:30am 5.0 -1.8 4.9 99 0.0 SW 30 46 16 25 - - 5.4
19/04:00am 5.0 -1.8 4.9 99 0.0 SW 30 50 16 27 - - 5.4
19/03:30am 4.9 -2.0 4.8 99 0.0 SW 30 52 16 28 - - 5.2
19/03:00am 4.9 -1.6 4.8 99 0.0 SW 28 52 15 28 - - 5.2
19/02:39am 4.8 -1.7 4.7 99 0.0 SW 28 46 15 25 - - 5.2
19/02:30am 4.8 -2.1 4.7 99 0.0 SW 30 41 16 22 - - 5.2
19/02:00am 4.6 -1.9 4.5 99 0.0 WSW 28 46 15 25 - - 5.0
19/01:58am 4.6 -1.9 4.5 99 0.0 WSW 28 46 15 25 - - 5.0
19/01:30am 4.5 -2.4 4.4 99 0.0 WSW 30 46 16 25 - - 4.8
19/01:15am 4.4 -2.2 4.3 99 0.0 SW 28 50 15 27 - - 4.8
19/01:00am 4.4 -2.2 4.3 99 0.0 WSW 28 39 15 21 - - 4.8
19/12:30am 4.3 -2.3 4.2 99 0.0 SW 28 43 15 23 - - 4.8
19/12:00am 4.3 -1.2 4.2 99 0.0 WSW 22 39 12 21 - - 4.6
 
Date/Time
EST
Temp
°C
App
Temp
°C
Dew
Point
°C
Rel
Hum
%
Delta-T
°C
Wind Press
QNH
hPa
Press
MSL
hPa
Rain since
9am
mm
Dir  Spd
km/h
Gust
km/h
Spd
kts
Gust
kts
18/11:30pm 4.4 -1.0 4.3 99 0.0 WSW 22 35 12 19 - - 4.6
18/11:00pm 4.3 -1.9 4.2 99 0.0 WSW 26 44 14 24 - - 4.6
18/10:30pm 4.3 -1.5 4.2 99 0.0 WSW 24 37 13 20 - - 4.4
18/10:00pm 4.3 -0.2 4.2 99 0.0 WSW 17 28 9 15 - - 4.2
18/09:30pm 4.3 -0.2 4.2 99 0.0 WSW 17 22 9 12 - - 4.2
18/09:00pm 4.3 -0.2 4.2 99 0.0 WSW 17 20 9 11 - - 4.2
18/08:30pm 4.4 0.7 4.3 99 0.0 W 13 20 7 11 - - 4.2
18/08:00pm 4.4 1.1 4.3 99 0.0 W 11 17 6 9 - - 4.2
18/07:30pm 4.4 1.8 4.3 99 0.0 W 7 11 4 6 - - 4.2
18/07:00pm 4.3 1.7 4.2 99 0.0 WNW 7 13 4 7 - - 4.2
18/06:30pm 4.2 1.6 4.1 99 0.0 WNW 7 11 4 6 - - 4.2
18/06:00pm 4.1 1.1 4.0 99 0.0 WNW 9 17 5 9 - - 4.2
18/05:30pm 4.0 0.6 3.9 99 0.0 WNW 11 17 6 9 - - 4.2
18/05:00pm 4.0 1.0 3.9 99 0.0 W 9 19 5 10 - - 4.2

Other Formats:

Comma delimited format used in spreadsheet applications
http://www.bom.gov.au/fwo/IDV60801/IDV60801.94835.axf

JavaScript Object Notation format (JSON) in row-major order
http://www.bom.gov.au/fwo/IDV60801/IDV60801.94835.json